createdAt,value
2023-12-16T00:04:14.957Z,87.45
2023-12-16T00:09:17.099Z,87.87
2023-12-16T00:14:18.984Z,88.00
2023-12-16T00:19:21.115Z,87.43
2023-12-16T00:24:23.321Z,87.51
2023-12-16T00:29:25.400Z,87.45
2023-12-16T00:34:27.228Z,88.15
2023-12-16T00:39:29.313Z,88.07
2023-12-16T00:44:31.044Z,88.20
2023-12-16T00:49:33.126Z,87.70
2023-12-16T00:54:35.120Z,88.07
2023-12-16T00:59:37.319Z,87.71
2023-12-16T01:04:39.165Z,87.81
2023-12-16T01:09:41.149Z,88.16
2023-12-16T01:14:43.003Z,88.38
2023-12-16T01:19:45.030Z,88.26
2023-12-16T01:24:47.137Z,88.04
2023-12-16T01:29:49.181Z,87.98
2023-12-16T01:34:51.343Z,87.62
2023-12-16T01:39:53.363Z,87.42
2023-12-16T01:44:55.249Z,87.48
2023-12-16T01:49:58.723Z,87.54
2023-12-16T01:55:00.849Z,87.72
2023-12-16T02:00:02.652Z,87.37
2023-12-16T02:05:05.995Z,87.54
2023-12-16T02:10:08.213Z,87.47
2023-12-16T02:15:10.411Z,87.32
2023-12-16T02:20:14.524Z,86.83
2023-12-16T02:25:16.826Z,87.36
2023-12-16T02:30:18.987Z,87.40
2023-12-16T02:35:21.021Z,88.10
2023-12-16T02:40:23.074Z,87.95
2023-12-16T02:45:25.600Z,88.70
2023-12-16T02:50:27.546Z,89.31
2023-12-16T02:55:29.626Z,89.86
2023-12-16T03:00:31.510Z,89.93
2023-12-16T03:05:33.674Z,89.70
2023-12-16T03:10:35.847Z,89.88
2023-12-16T03:15:37.978Z,90.22
2023-12-16T03:20:39.788Z,90.17
2023-12-16T03:25:41.887Z,90.00
2023-12-16T03:30:44.055Z,90.05
2023-12-16T03:35:45.850Z,90.33
2023-12-16T03:40:47.991Z,91.10
2023-12-16T03:45:49.782Z,91.30
2023-12-16T03:50:51.831Z,91.33
2023-12-16T03:55:54.179Z,91.05
2023-12-16T04:00:56.455Z,91.04
2023-12-16T04:05:58.645Z,91.10
2023-12-16T04:11:00.713Z,91.28
2023-12-16T04:16:03.282Z,91.39
2023-12-16T04:21:05.669Z,91.57
2023-12-16T04:26:08.683Z,91.80
2023-12-16T04:31:15.044Z,92.86
2023-12-16T04:36:17.680Z,93.18
2023-12-16T04:41:19.825Z,92.88
2023-12-16T04:46:21.913Z,93.18
2023-12-16T04:51:24.340Z,94.14
2023-12-16T04:56:26.374Z,94.09
2023-12-16T05:01:28.427Z,94.21
2023-12-16T05:06:30.418Z,94.82
2023-12-16T05:11:32.531Z,95.38
2023-12-16T05:16:34.708Z,94.80
2023-12-16T05:21:36.687Z,95.77
2023-12-16T05:26:38.743Z,95.88
2023-12-16T05:31:40.859Z,95.83
2023-12-16T05:36:42.902Z,96.33
2023-12-16T05:41:44.883Z,95.89
2023-12-16T05:46:46.975Z,95.10
2023-12-16T05:51:49.099Z,95.36
2023-12-16T05:56:51.452Z,95.35
2023-12-16T06:01:53.613Z,95.33
2023-12-16T06:06:55.680Z,95.08
2023-12-16T06:11:57.845Z,94.98
2023-12-16T06:17:00.099Z,95.09
2023-12-16T06:22:03.799Z,94.82
2023-12-16T06:27:05.770Z,94.86
2023-12-16T06:32:08.126Z,94.59
2023-12-16T06:37:10.265Z,94.52
2023-12-16T06:42:12.402Z,94.13
2023-12-16T06:47:14.462Z,93.77
2023-12-16T06:52:16.559Z,93.47
2023-12-16T06:57:19.859Z,93.25
2023-12-16T07:02:21.900Z,93.99
2023-12-16T07:07:24.056Z,93.69
2023-12-16T07:12:26.347Z,93.76
2023-12-16T07:17:28.546Z,93.55
2023-12-16T07:22:30.749Z,93.27
2023-12-16T07:27:32.876Z,93.54
2023-12-16T07:32:35.003Z,93.91
2023-12-16T07:37:37.308Z,92.78
2023-12-16T07:42:42.137Z,92.89
2023-12-16T07:47:44.578Z,92.67
2023-12-16T07:52:47.109Z,92.99
2023-12-16T07:57:49.177Z,92.77
2023-12-16T08:02:51.244Z,92.83
2023-12-16T08:07:53.313Z,92.19
2023-12-16T08:12:55.385Z,91.75
2023-12-16T08:17:57.435Z,90.89
2023-12-16T08:22:59.578Z,91.49
2023-12-16T08:28:01.633Z,92.74
2023-12-16T08:33:03.755Z,92.27
2023-12-16T08:38:05.913Z,92.00
2023-12-16T08:43:07.918Z,91.68
2023-12-16T08:48:10.157Z,91.42
2023-12-16T08:53:12.634Z,90.00
2023-12-16T08:58:14.506Z,90.19
2023-12-16T09:03:16.727Z,90.69
2023-12-16T09:08:18.794Z,90.08
2023-12-16T09:13:20.771Z,89.82
2023-12-16T09:18:22.901Z,89.67
2023-12-16T09:23:25.182Z,89.79
2023-12-16T09:28:27.241Z,90.26
2023-12-16T09:33:29.518Z,90.10
2023-12-16T09:38:31.655Z,90.32
2023-12-16T09:43:34.692Z,89.73
2023-12-16T09:48:36.917Z,90.73
2023-12-16T09:53:39.141Z,90.61
2023-12-16T09:58:41.872Z,90.71
2023-12-16T10:03:46.280Z,90.73
2023-12-16T10:08:48.973Z,90.02
2023-12-16T10:13:59.183Z,90.41
2023-12-16T10:19:01.711Z,90.46
2023-12-16T10:24:04.022Z,89.97
2023-12-16T10:29:06.026Z,90.29
2023-12-16T10:34:08.307Z,90.80
2023-12-16T10:39:10.446Z,91.25
2023-12-16T10:44:12.559Z,91.67
2023-12-16T10:49:14.681Z,91.81
2023-12-16T10:54:26.768Z,91.39
2023-12-16T10:59:33.329Z,91.09
2023-12-16T11:04:36.361Z,91.03
2023-12-16T11:09:38.616Z,92.12
2023-12-16T11:14:40.635Z,92.39
2023-12-16T11:20:05.861Z,92.47
2023-12-16T11:25:19.139Z,92.06
2023-12-16T11:30:23.066Z,91.92
2023-12-16T11:35:37.124Z,93.10
2023-12-16T11:40:46.253Z,92.26
2023-12-16T11:45:51.778Z,93.04
2023-12-16T11:50:53.917Z,93.55
2023-12-16T11:55:56.505Z,93.23
2023-12-16T12:00:58.795Z,93.55
2023-12-16T12:06:00.903Z,93.78
2023-12-16T12:11:03.004Z,93.52
2023-12-16T12:16:06.631Z,94.04
2023-12-16T12:21:08.891Z,94.51
2023-12-16T12:26:11.088Z,94.26
2023-12-16T12:31:13.195Z,95.15
2023-12-16T12:36:15.358Z,95.43
2023-12-16T12:41:17.598Z,96.30
2023-12-16T12:46:19.786Z,96.41
2023-12-16T12:51:21.820Z,96.63
2023-12-16T12:56:24.293Z,96.72
2023-12-16T13:01:26.562Z,96.72
2023-12-16T13:06:31.618Z,96.50
2023-12-16T13:11:33.749Z,95.98
2023-12-16T13:16:36.715Z,96.06
2023-12-16T13:21:38.780Z,96.14
2023-12-16T13:26:40.912Z,96.37
2023-12-16T13:31:43.213Z,96.69
2023-12-16T13:36:50.427Z,96.06
2023-12-16T13:41:54.085Z,95.88
2023-12-16T13:46:56.095Z,96.07
2023-12-16T13:51:58.212Z,96.66
2023-12-16T13:57:01.197Z,96.49
2023-12-16T14:02:03.461Z,96.33
2023-12-16T14:07:07.629Z,96.34
2023-12-16T14:12:10.176Z,96.04
2023-12-16T14:17:12.440Z,96.12
2023-12-16T14:22:15.093Z,95.47
2023-12-16T14:27:17.452Z,94.84
2023-12-16T14:32:19.494Z,94.84
2023-12-16T14:37:21.667Z,94.81
2023-12-16T14:42:23.700Z,94.47
2023-12-16T14:47:25.892Z,94.89
2023-12-16T14:52:27.947Z,94.92
2023-12-16T14:57:29.970Z,94.65
2023-12-16T15:02:32.162Z,94.54
2023-12-16T15:07:34.463Z,95.02
2023-12-16T15:12:36.759Z,94.33
2023-12-16T15:17:39.514Z,94.42
2023-12-16T15:22:42.120Z,95.15
2023-12-16T15:27:44.658Z,94.67
2023-12-16T15:32:46.642Z,95.07
2023-12-16T15:37:48.814Z,94.44
2023-12-16T15:42:50.881Z,95.22
2023-12-16T15:47:53.196Z,94.77
2023-12-16T15:52:55.067Z,94.92
2023-12-16T15:57:57.056Z,95.35
2023-12-16T16:02:59.422Z,94.45
2023-12-16T16:08:01.564Z,94.75
2023-12-16T16:13:03.970Z,94.84
2023-12-16T16:18:06.038Z,95.56
2023-12-16T16:23:08.403Z,95.63
2023-12-16T16:28:10.282Z,96.37
2023-12-16T16:33:12.318Z,95.84
2023-12-16T16:38:14.393Z,95.93
2023-12-16T16:43:16.401Z,95.29
2023-12-16T16:48:18.787Z,95.53
2023-12-16T16:53:21.822Z,95.57
2023-12-16T16:58:23.587Z,95.83
2023-12-16T17:03:26.008Z,95.36
2023-12-16T17:08:28.267Z,95.42
2023-12-16T17:13:30.417Z,95.00
2023-12-16T17:18:32.929Z,95.60
2023-12-16T17:23:35.200Z,95.42
2023-12-16T17:28:37.489Z,95.19
2023-12-16T17:33:40.171Z,95.81
2023-12-16T17:38:42.324Z,95.34
2023-12-16T17:43:44.426Z,96.01
2023-12-16T17:48:46.753Z,95.67
2023-12-16T17:53:49.091Z,95.59
2023-12-16T17:58:52.036Z,95.71
2023-12-16T18:03:54.717Z,95.76
2023-12-16T18:08:56.902Z,95.61
2023-12-16T18:13:59.353Z,95.67
2023-12-16T18:19:02.057Z,94.99
2023-12-16T18:24:04.659Z,94.26
2023-12-16T18:29:06.720Z,95.01
2023-12-16T18:34:09.000Z,94.38
2023-12-16T18:39:11.194Z,94.99
2023-12-16T18:44:13.324Z,94.51
2023-12-16T18:49:15.476Z,94.48
2023-12-16T18:54:17.854Z,94.63
2023-12-16T18:59:20.697Z,94.15
2023-12-16T19:04:22.794Z,94.76
2023-12-16T19:09:25.128Z,95.39
2023-12-16T19:14:28.756Z,95.94
2023-12-16T19:19:33.888Z,95.79
2023-12-16T19:24:38.224Z,95.01
2023-12-16T19:29:47.210Z,96.07
2023-12-16T19:34:56.736Z,95.41
2023-12-16T19:40:00.272Z,96.09
2023-12-16T19:45:09.684Z,95.95
2023-12-16T19:50:16.929Z,96.19
2023-12-16T19:55:22.993Z,95.69
2023-12-16T20:00:27.698Z,95.99
2023-12-16T20:05:37.731Z,95.67
2023-12-16T20:10:46.160Z,96.11
2023-12-16T20:15:53.570Z,95.99
2023-12-16T20:20:56.278Z,97.09
2023-12-16T20:26:01.139Z,96.95
2023-12-16T20:31:03.164Z,97.35
2023-12-16T20:36:05.459Z,96.70
2023-12-16T20:41:09.053Z,97.03
2023-12-16T20:46:12.760Z,96.29
2023-12-16T20:51:14.574Z,96.57
2023-12-16T20:56:16.543Z,96.70
2023-12-16T21:01:18.643Z,97.01
2023-12-16T21:06:20.672Z,97.23
2023-12-16T21:11:22.658Z,97.41
2023-12-16T21:16:24.769Z,97.19
2023-12-16T21:21:26.828Z,97.01
2023-12-16T21:26:28.826Z,97.34
2023-12-16T21:31:30.930Z,96.79
2023-12-16T21:36:32.980Z,97.52
2023-12-16T21:41:35.131Z,97.06
2023-12-16T21:46:37.137Z,96.85
2023-12-16T21:51:39.091Z,97.26
2023-12-16T21:56:41.162Z,97.60
2023-12-16T22:01:43.332Z,98.12
2023-12-16T22:06:45.339Z,98.79
2023-12-16T22:11:47.336Z,99.63
2023-12-16T22:16:49.361Z,99.66
2023-12-16T22:21:51.359Z,100.00
2023-12-16T22:26:53.753Z,99.66
2023-12-16T22:31:55.986Z,100.00
2023-12-16T22:36:57.936Z,100.00
2023-12-16T22:41:59.985Z,100.00
2023-12-16T22:47:01.979Z,100.00
2023-12-16T22:52:04.246Z,100.00
2023-12-16T22:57:06.328Z,100.00
2023-12-16T23:02:08.398Z,100.00
2023-12-16T23:07:10.521Z,100.00
2023-12-16T23:12:13.079Z,100.00
2023-12-16T23:17:15.053Z,100.00
2023-12-16T23:22:19.215Z,100.00
2023-12-16T23:27:21.267Z,100.00
2023-12-16T23:32:23.336Z,100.00
2023-12-16T23:37:25.319Z,100.00
2023-12-16T23:42:27.414Z,100.00
2023-12-16T23:47:29.500Z,100.00
2023-12-16T23:52:31.503Z,100.00
2023-12-16T23:57:33.622Z,100.00
